Campo, Colorado
Current Conditions -  °F | °C
As of 9:55 PM on Sunday 19 Oct 2014 (Local Time) from KCAO Reporting Station
Clear Clear  
Wind Chill: 55°   Ceiling: Unl
Heat Index: 55°   Visibility: 10mi
Dew Point: 46°   Wind: 12mph
Humidity: 72%   Direction: 290°WNW
Pressure: 30.12"   Gusts: NA
Location:  37.11°N, 102.58°W
Report Text: KCAO 200355Z AUTO 29010KT 10SM CLR 13/08 A3012 RMK AO2 SLP161 T01280078
Loading
Personal Weather Stations






























Interactive Weather Map
Tropical Storm Tracking
New forecast layout! Learn more

10-Day Weather Forecast

Advertisements
Track Severe Weather on mobile